sensor_id;sensor_type;location;lat;lon;timestamp;P1;durP1;ratioP1;P2;durP2;ratioP2
2099;SDS011;1055;48.854;9.302;2022-11-20T00:02:25;29.50;;;11.90;;
2099;SDS011;1055;48.854;9.302;2022-11-20T00:04:51;18.73;;;11.60;;
2099;SDS011;1055;48.854;9.302;2022-11-20T00:07:16;23.30;;;12.50;;
2099;SDS011;1055;48.854;9.302;2022-11-20T00:09:42;29.37;;;12.10;;
2099;SDS011;1055;48.854;9.302;2022-11-20T00:12:09;20.50;;;12.40;;
2099;SDS011;1055;48.854;9.302;2022-11-20T00:14:35;23.98;;;12.43;;
2099;SDS011;1055;48.854;9.302;2022-11-20T00:17:00;23.27;;;12.13;;
2099;SDS011;1055;48.854;9.302;2022-11-20T00:19:26;24.47;;;11.83;;
2099;SDS011;1055;48.854;9.302;2022-11-20T00:21:51;25.13;;;12.50;;
2099;SDS011;1055;48.854;9.302;2022-11-20T00:24:18;20.98;;;11.85;;
2099;SDS011;1055;48.854;9.302;2022-11-20T00:26:44;21.70;;;12.70;;
2099;SDS011;1055;48.854;9.302;2022-11-20T00:29:10;21.60;;;11.60;;
2099;SDS011;1055;48.854;9.302;2022-11-20T00:31:35;23.93;;;12.60;;
2099;SDS011;1055;48.854;9.302;2022-11-20T00:34:01;24.27;;;13.10;;
2099;SDS011;1055;48.854;9.302;2022-11-20T00:36:28;23.30;;;13.10;;
2099;SDS011;1055;48.854;9.302;2022-11-20T00:38:57;19.65;;;10.93;;
2099;SDS011;1055;48.854;9.302;2022-11-20T00:41:23;22.30;;;12.20;;
2099;SDS011;1055;48.854;9.302;2022-11-20T00:43:53;20.65;;;11.60;;
2099;SDS011;1055;48.854;9.302;2022-11-20T00:46:21;23.33;;;12.50;;
2099;SDS011;1055;48.854;9.302;2022-11-20T00:48:48;21.05;;;11.73;;
2099;SDS011;1055;48.854;9.302;2022-11-20T00:51:15;19.27;;;11.23;;
2099;SDS011;1055;48.854;9.302;2022-11-20T00:53:43;22.98;;;12.35;;
2099;SDS011;1055;48.854;9.302;2022-11-20T00:56:10;20.10;;;11.50;;
2099;SDS011;1055;48.854;9.302;2022-11-20T00:58:38;20.35;;;12.32;;
2099;SDS011;1055;48.854;9.302;2022-11-20T01:01:07;20.30;;;11.63;;
2099;SDS011;1055;48.854;9.302;2022-11-20T01:03:41;22.02;;;12.82;;
2099;SDS011;1055;48.854;9.302;2022-11-20T01:06:15;22.50;;;12.57;;
2099;SDS011;1055;48.854;9.302;2022-11-20T01:08:42;23.20;;;12.75;;
2099;SDS011;1055;48.854;9.302;2022-11-20T01:11:10;20.38;;;12.27;;
2099;SDS011;1055;48.854;9.302;2022-11-20T01:13:37;22.63;;;13.05;;
2099;SDS011;1055;48.854;9.302;2022-11-20T01:16:07;20.70;;;12.27;;
2099;SDS011;1055;48.854;9.302;2022-11-20T01:18:53;23.60;;;13.50;;
2099;SDS011;1055;48.854;9.302;2022-11-20T01:21:22;23.10;;;11.93;;
2099;SDS011;1055;48.854;9.302;2022-11-20T01:23:50;22.48;;;12.77;;
2099;SDS011;1055;48.854;9.302;2022-11-20T01:26:17;21.42;;;12.45;;
2099;SDS011;1055;48.854;9.302;2022-11-20T01:28:44;24.55;;;13.35;;
2099;SDS011;1055;48.854;9.302;2022-11-20T01:31:13;27.97;;;13.67;;
2099;SDS011;1055;48.854;9.302;2022-11-20T01:33:50;21.67;;;12.45;;
2099;SDS011;1055;48.854;9.302;2022-11-20T01:36:19;22.92;;;12.70;;
2099;SDS011;1055;48.854;9.302;2022-11-20T01:38:46;30.05;;;13.70;;
2099;SDS011;1055;48.854;9.302;2022-11-20T01:41:13;41.58;;;15.32;;
2099;SDS011;1055;48.854;9.302;2022-11-20T01:44:00;50.45;;;14.70;;
2099;SDS011;1055;48.854;9.302;2022-11-20T01:46:26;45.97;;;14.43;;
2099;SDS011;1055;48.854;9.302;2022-11-20T01:49:08;27.83;;;13.20;;
2099;SDS011;1055;48.854;9.302;2022-11-20T01:54:16;18.60;;;10.88;;
2099;SDS011;1055;48.854;9.302;2022-11-20T01:56:52;18.70;;;11.20;;
2099;SDS011;1055;48.854;9.302;2022-11-20T01:59:21;19.25;;;11.85;;
2099;SDS011;1055;48.854;9.302;2022-11-20T02:01:50;20.73;;;12.15;;
2099;SDS011;1055;48.854;9.302;2022-11-20T02:04:15;19.23;;;11.83;;
2099;SDS011;1055;48.854;9.302;2022-11-20T02:06:42;22.00;;;12.10;;
2099;SDS011;1055;48.854;9.302;2022-11-20T02:09:12;22.23;;;12.20;;
2099;SDS011;1055;48.854;9.302;2022-11-20T02:11:38;21.85;;;11.43;;
2099;SDS011;1055;48.854;9.302;2022-11-20T02:14:04;20.77;;;11.70;;
2099;SDS011;1055;48.854;9.302;2022-11-20T02:16:31;20.20;;;11.23;;
2099;SDS011;1055;48.854;9.302;2022-11-20T02:19:01;19.92;;;13.52;;
2099;SDS011;1055;48.854;9.302;2022-11-20T02:21:45;20.45;;;12.68;;
2099;SDS011;1055;48.854;9.302;2022-11-20T02:24:18;21.08;;;11.70;;
2099;SDS011;1055;48.854;9.302;2022-11-20T02:26:53;20.52;;;13.27;;
2099;SDS011;1055;48.854;9.302;2022-11-20T02:29:31;21.80;;;12.50;;
2099;SDS011;1055;48.854;9.302;2022-11-20T02:32:01;22.10;;;13.57;;
2099;SDS011;1055;48.854;9.302;2022-11-20T02:34:27;25.33;;;14.00;;
2099;SDS011;1055;48.854;9.302;2022-11-20T02:36:53;22.92;;;13.75;;
2099;SDS011;1055;48.854;9.302;2022-11-20T02:39:21;21.02;;;13.10;;
2099;SDS011;1055;48.854;9.302;2022-11-20T02:41:50;23.77;;;12.75;;
2099;SDS011;1055;48.854;9.302;2022-11-20T02:44:18;18.77;;;11.60;;
2099;SDS011;1055;48.854;9.302;2022-11-20T02:46:44;20.73;;;10.87;;
2099;SDS011;1055;48.854;9.302;2022-11-20T02:49:09;16.27;;;10.30;;
2099;SDS011;1055;48.854;9.302;2022-11-20T02:51:35;16.10;;;9.23;;
2099;SDS011;1055;48.854;9.302;2022-11-20T02:54:00;14.83;;;9.00;;
2099;SDS011;1055;48.854;9.302;2022-11-20T02:56:26;13.70;;;8.20;;
2099;SDS011;1055;48.854;9.302;2022-11-20T02:58:52;14.18;;;7.35;;
2099;SDS011;1055;48.854;9.302;2022-11-20T03:01:18;12.27;;;6.80;;
2099;SDS011;1055;48.854;9.302;2022-11-20T03:03:43;13.33;;;7.40;;
2099;SDS011;1055;48.854;9.302;2022-11-20T03:06:09;13.43;;;6.50;;
2099;SDS011;1055;48.854;9.302;2022-11-20T03:08:35;10.87;;;6.30;;
2099;SDS011;1055;48.854;9.302;2022-11-20T03:11:04;11.40;;;6.00;;
2099;SDS011;1055;48.854;9.302;2022-11-20T03:13:31;10.95;;;5.82;;
2099;SDS011;1055;48.854;9.302;2022-11-20T03:15:57;10.60;;;5.90;;
2099;SDS011;1055;48.854;9.302;2022-11-20T03:18:23;10.47;;;6.60;;
2099;SDS011;1055;48.854;9.302;2022-11-20T03:20:48;9.80;;;5.20;;
2099;SDS011;1055;48.854;9.302;2022-11-20T03:23:14;11.90;;;5.40;;
2099;SDS011;1055;48.854;9.302;2022-11-20T03:25:40;9.50;;;4.70;;
2099;SDS011;1055;48.854;9.302;2022-11-20T03:28:05;11.47;;;5.63;;
2099;SDS011;1055;48.854;9.302;2022-11-20T03:30:31;12.00;;;5.63;;
2099;SDS011;1055;48.854;9.302;2022-11-20T03:32:56;7.80;;;4.33;;
2099;SDS011;1055;48.854;9.302;2022-11-20T03:35:22;11.83;;;5.30;;
2099;SDS011;1055;48.854;9.302;2022-11-20T03:37:47;8.87;;;4.90;;
2099;SDS011;1055;48.854;9.302;2022-11-20T03:40:13;9.80;;;4.60;;
2099;SDS011;1055;48.854;9.302;2022-11-20T03:42:39;8.50;;;4.50;;
2099;SDS011;1055;48.854;9.302;2022-11-20T03:45:11;12.35;;;4.72;;
2099;SDS011;1055;48.854;9.302;2022-11-20T03:47:41;9.35;;;4.97;;
2099;SDS011;1055;48.854;9.302;2022-11-20T03:50:08;10.50;;;4.25;;
2099;SDS011;1055;48.854;9.302;2022-11-20T03:52:34;10.27;;;4.40;;
2099;SDS011;1055;48.854;9.302;2022-11-20T03:55:00;8.80;;;4.80;;
2099;SDS011;1055;48.854;9.302;2022-11-20T03:57:26;9.10;;;4.43;;
2099;SDS011;1055;48.854;9.302;2022-11-20T03:59:51;8.30;;;4.37;;
2099;SDS011;1055;48.854;9.302;2022-11-20T04:02:17;8.43;;;4.30;;
2099;SDS011;1055;48.854;9.302;2022-11-20T04:04:43;10.03;;;5.33;;
2099;SDS011;1055;48.854;9.302;2022-11-20T04:07:09;10.27;;;5.80;;
2099;SDS011;1055;48.854;9.302;2022-11-20T04:09:35;10.00;;;5.28;;
2099;SDS011;1055;48.854;9.302;2022-11-20T04:12:00;10.37;;;5.83;;
2099;SDS011;1055;48.854;9.302;2022-11-20T04:14:26;9.77;;;5.30;;
2099;SDS011;1055;48.854;9.302;2022-11-20T04:16:51;9.33;;;4.90;;
2099;SDS011;1055;48.854;9.302;2022-11-20T04:19:17;9.87;;;4.80;;
2099;SDS011;1055;48.854;9.302;2022-11-20T04:21:43;10.87;;;7.33;;
2099;SDS011;1055;48.854;9.302;2022-11-20T04:24:09;8.70;;;4.88;;
2099;SDS011;1055;48.854;9.302;2022-11-20T04:26:35;8.60;;;4.60;;
2099;SDS011;1055;48.854;9.302;2022-11-20T04:29:02;8.38;;;4.40;;
2099;SDS011;1055;48.854;9.302;2022-11-20T04:31:29;8.50;;;4.38;;
2099;SDS011;1055;48.854;9.302;2022-11-20T04:33:58;9.23;;;5.15;;
2099;SDS011;1055;48.854;9.302;2022-11-20T04:36:26;8.93;;;4.88;;
2099;SDS011;1055;48.854;9.302;2022-11-20T04:38:53;8.73;;;4.82;;
2099;SDS011;1055;48.854;9.302;2022-11-20T04:41:24;8.77;;;4.63;;
2099;SDS011;1055;48.854;9.302;2022-11-20T04:43:52;8.07;;;4.28;;
2099;SDS011;1055;48.854;9.302;2022-11-20T04:46:24;9.60;;;4.70;;
2099;SDS011;1055;48.854;9.302;2022-11-20T04:48:50;8.63;;;4.40;;
2099;SDS011;1055;48.854;9.302;2022-11-20T04:51:16;8.40;;;4.60;;
2099;SDS011;1055;48.854;9.302;2022-11-20T04:53:42;8.77;;;5.30;;
2099;SDS011;1055;48.854;9.302;2022-11-20T04:56:08;8.47;;;4.47;;
2099;SDS011;1055;48.854;9.302;2022-11-20T04:58:36;9.30;;;5.07;;
2099;SDS011;1055;48.854;9.302;2022-11-20T05:01:03;7.80;;;4.40;;
2099;SDS011;1055;48.854;9.302;2022-11-20T05:03:34;8.18;;;4.13;;
2099;SDS011;1055;48.854;9.302;2022-11-20T05:06:00;11.10;;;6.50;;
2099;SDS011;1055;48.854;9.302;2022-11-20T05:08:26;9.30;;;5.22;;
2099;SDS011;1055;48.854;9.302;2022-11-20T05:10:52;8.45;;;4.82;;
2099;SDS011;1055;48.854;9.302;2022-11-20T05:13:18;8.10;;;4.73;;
2099;SDS011;1055;48.854;9.302;2022-11-20T05:15:43;9.87;;;4.40;;
2099;SDS011;1055;48.854;9.302;2022-11-20T05:18:09;9.33;;;4.73;;
2099;SDS011;1055;48.854;9.302;2022-11-20T05:20:34;9.00;;;4.83;;
2099;SDS011;1055;48.854;9.302;2022-11-20T05:23:01;8.43;;;4.55;;
2099;SDS011;1055;48.854;9.302;2022-11-20T05:25:27;9.80;;;4.80;;
2099;SDS011;1055;48.854;9.302;2022-11-20T05:27:52;9.13;;;4.83;;
2099;SDS011;1055;48.854;9.302;2022-11-20T05:30:18;7.90;;;4.33;;
2099;SDS011;1055;48.854;9.302;2022-11-20T05:32:44;9.40;;;4.30;;
2099;SDS011;1055;48.854;9.302;2022-11-20T05:35:09;7.67;;;3.97;;
2099;SDS011;1055;48.854;9.302;2022-11-20T05:37:35;8.90;;;4.97;;
2099;SDS011;1055;48.854;9.302;2022-11-20T05:40:00;9.03;;;4.33;;
2099;SDS011;1055;48.854;9.302;2022-11-20T05:42:30;8.80;;;5.30;;
2099;SDS011;1055;48.854;9.302;2022-11-20T05:45:03;8.63;;;4.53;;
2099;SDS011;1055;48.854;9.302;2022-11-20T05:47:33;7.60;;;4.10;;
2099;SDS011;1055;48.854;9.302;2022-11-20T05:49:59;8.93;;;4.90;;
2099;SDS011;1055;48.854;9.302;2022-11-20T05:52:27;8.77;;;4.70;;
2099;SDS011;1055;48.854;9.302;2022-11-20T05:54:54;8.00;;;4.50;;
2099;SDS011;1055;48.854;9.302;2022-11-20T05:57:19;7.90;;;4.67;;
2099;SDS011;1055;48.854;9.302;2022-11-20T05:59:45;8.37;;;4.63;;
2099;SDS011;1055;48.854;9.302;2022-11-20T06:02:11;7.80;;;4.30;;
2099;SDS011;1055;48.854;9.302;2022-11-20T06:04:36;8.90;;;4.70;;
2099;SDS011;1055;48.854;9.302;2022-11-20T06:07:02;9.17;;;4.80;;
2099;SDS011;1055;48.854;9.302;2022-11-20T06:09:29;9.98;;;4.63;;
2099;SDS011;1055;48.854;9.302;2022-11-20T06:11:54;7.77;;;4.40;;
2099;SDS011;1055;48.854;9.302;2022-11-20T06:14:20;8.37;;;4.10;;
2099;SDS011;1055;48.854;9.302;2022-11-20T06:16:46;7.80;;;3.70;;
2099;SDS011;1055;48.854;9.302;2022-11-20T06:19:11;9.40;;;4.30;;
2099;SDS011;1055;48.854;9.302;2022-11-20T06:21:37;10.23;;;4.13;;
2099;SDS011;1055;48.854;9.302;2022-11-20T06:24:02;7.60;;;4.10;;
2099;SDS011;1055;48.854;9.302;2022-11-20T06:26:29;8.00;;;3.80;;
2099;SDS011;1055;48.854;9.302;2022-11-20T06:28:55;9.13;;;4.35;;
2099;SDS011;1055;48.854;9.302;2022-11-20T06:31:21;8.07;;;4.00;;
2099;SDS011;1055;48.854;9.302;2022-11-20T06:33:48;10.82;;;4.72;;
2099;SDS011;1055;48.854;9.302;2022-11-20T06:36:15;7.05;;;3.38;;
2099;SDS011;1055;48.854;9.302;2022-11-20T06:38:42;7.10;;;3.85;;
2099;SDS011;1055;48.854;9.302;2022-11-20T06:41:10;7.10;;;4.10;;
2099;SDS011;1055;48.854;9.302;2022-11-20T06:43:37;7.40;;;3.70;;
2099;SDS011;1055;48.854;9.302;2022-11-20T06:46:03;8.20;;;4.23;;
2099;SDS011;1055;48.854;9.302;2022-11-20T06:48:29;8.87;;;3.93;;
2099;SDS011;1055;48.854;9.302;2022-11-20T06:50:54;8.07;;;4.60;;
2099;SDS011;1055;48.854;9.302;2022-11-20T06:53:21;8.37;;;3.30;;
2099;SDS011;1055;48.854;9.302;2022-11-20T06:55:49;10.85;;;4.05;;
2099;SDS011;1055;48.854;9.302;2022-11-20T06:58:16;7.97;;;3.83;;
2099;SDS011;1055;48.854;9.302;2022-11-20T07:00:42;8.25;;;3.85;;
2099;SDS011;1055;48.854;9.302;2022-11-20T07:03:09;7.22;;;3.20;;
2099;SDS011;1055;48.854;9.302;2022-11-20T07:05:36;8.50;;;3.83;;
2099;SDS011;1055;48.854;9.302;2022-11-20T07:08:03;7.00;;;3.72;;
2099;SDS011;1055;48.854;9.302;2022-11-20T07:10:29;6.93;;;3.40;;
2099;SDS011;1055;48.854;9.302;2022-11-20T07:12:55;7.00;;;3.75;;
2099;SDS011;1055;48.854;9.302;2022-11-20T07:15:21;7.50;;;3.43;;
2099;SDS011;1055;48.854;9.302;2022-11-20T07:17:48;9.77;;;3.90;;
2099;SDS011;1055;48.854;9.302;2022-11-20T07:20:14;6.97;;;3.37;;
2099;SDS011;1055;48.854;9.302;2022-11-20T07:22:41;9.50;;;3.15;;
2099;SDS011;1055;48.854;9.302;2022-11-20T07:25:07;6.60;;;3.50;;
2099;SDS011;1055;48.854;9.302;2022-11-20T07:27:33;6.75;;;3.08;;
2099;SDS011;1055;48.854;9.302;2022-11-20T07:29:59;7.27;;;3.50;;
2099;SDS011;1055;48.854;9.302;2022-11-20T07:32:25;7.90;;;3.35;;
2099;SDS011;1055;48.854;9.302;2022-11-20T07:34:51;8.10;;;3.20;;
2099;SDS011;1055;48.854;9.302;2022-11-20T07:37:17;7.10;;;3.40;;
2099;SDS011;1055;48.854;9.302;2022-11-20T07:39:43;6.53;;;3.35;;
2099;SDS011;1055;48.854;9.302;2022-11-20T07:42:09;6.40;;;3.10;;
2099;SDS011;1055;48.854;9.302;2022-11-20T07:44:35;7.82;;;3.30;;
2099;SDS011;1055;48.854;9.302;2022-11-20T07:47:01;7.20;;;3.50;;
2099;SDS011;1055;48.854;9.302;2022-11-20T07:49:27;6.90;;;3.27;;
2099;SDS011;1055;48.854;9.302;2022-11-20T07:51:52;7.33;;;3.60;;
2099;SDS011;1055;48.854;9.302;2022-11-20T07:54:18;7.43;;;3.33;;
2099;SDS011;1055;48.854;9.302;2022-11-20T07:56:45;7.45;;;3.30;;
2099;SDS011;1055;48.854;9.302;2022-11-20T07:59:11;8.20;;;4.18;;
2099;SDS011;1055;48.854;9.302;2022-11-20T08:01:37;7.20;;;3.80;;
2099;SDS011;1055;48.854;9.302;2022-11-20T08:04:03;7.35;;;3.60;;
2099;SDS011;1055;48.854;9.302;2022-11-20T08:06:29;7.50;;;3.33;;
2099;SDS011;1055;48.854;9.302;2022-11-20T08:08:54;9.03;;;3.93;;
2099;SDS011;1055;48.854;9.302;2022-11-20T08:11:20;6.70;;;3.33;;
2099;SDS011;1055;48.854;9.302;2022-11-20T08:14:04;9.30;;;3.33;;
2099;SDS011;1055;48.854;9.302;2022-11-20T08:16:43;8.82;;;3.28;;
2099;SDS011;1055;48.854;9.302;2022-11-20T08:19:11;6.88;;;3.40;;
2099;SDS011;1055;48.854;9.302;2022-11-20T08:21:38;7.18;;;3.30;;
2099;SDS011;1055;48.854;9.302;2022-11-20T08:24:04;7.03;;;3.13;;
2099;SDS011;1055;48.854;9.302;2022-11-20T08:26:30;7.38;;;3.65;;
2099;SDS011;1055;48.854;9.302;2022-11-20T08:28:56;9.10;;;5.00;;
2099;SDS011;1055;48.854;9.302;2022-11-20T08:31:23;7.57;;;2.92;;
2099;SDS011;1055;48.854;9.302;2022-11-20T08:33:50;6.70;;;2.97;;
2099;SDS011;1055;48.854;9.302;2022-11-20T08:36:16;7.53;;;3.23;;
2099;SDS011;1055;48.854;9.302;2022-11-20T08:38:42;5.95;;;2.42;;
2099;SDS011;1055;48.854;9.302;2022-11-20T08:41:11;7.30;;;3.03;;
2099;SDS011;1055;48.854;9.302;2022-11-20T08:43:50;7.13;;;2.60;;
2099;SDS011;1055;48.854;9.302;2022-11-20T08:46:20;7.45;;;3.28;;
2099;SDS011;1055;48.854;9.302;2022-11-20T08:48:47;6.63;;;3.08;;
2099;SDS011;1055;48.854;9.302;2022-11-20T08:51:12;7.07;;;3.37;;
2099;SDS011;1055;48.854;9.302;2022-11-20T08:53:39;6.93;;;3.40;;
2099;SDS011;1055;48.854;9.302;2022-11-20T08:56:05;6.78;;;3.00;;
2099;SDS011;1055;48.854;9.302;2022-11-20T08:58:31;6.22;;;2.25;;
2099;SDS011;1055;48.854;9.302;2022-11-20T09:00:57;6.90;;;2.87;;
2099;SDS011;1055;48.854;9.302;2022-11-20T09:03:23;6.90;;;2.40;;
2099;SDS011;1055;48.854;9.302;2022-11-20T09:05:48;7.27;;;2.80;;
2099;SDS011;1055;48.854;9.302;2022-11-20T09:08:14;6.00;;;2.50;;
2099;SDS011;1055;48.854;9.302;2022-11-20T09:10:40;6.13;;;2.30;;
2099;SDS011;1055;48.854;9.302;2022-11-20T09:13:05;7.13;;;2.40;;
2099;SDS011;1055;48.854;9.302;2022-11-20T09:15:31;7.37;;;2.30;;
2099;SDS011;1055;48.854;9.302;2022-11-20T09:17:58;5.15;;;1.67;;
2099;SDS011;1055;48.854;9.302;2022-11-20T09:20:29;5.15;;;1.70;;
2099;SDS011;1055;48.854;9.302;2022-11-20T09:22:55;5.50;;;1.40;;
2099;SDS011;1055;48.854;9.302;2022-11-20T09:25:21;5.60;;;1.70;;
2099;SDS011;1055;48.854;9.302;2022-11-20T09:27:47;7.33;;;1.23;;
2099;SDS011;1055;48.854;9.302;2022-11-20T09:30:13;4.67;;;1.17;;
2099;SDS011;1055;48.854;9.302;2022-11-20T09:32:40;5.15;;;1.65;;
2099;SDS011;1055;48.854;9.302;2022-11-20T09:35:06;5.10;;;1.20;;
2099;SDS011;1055;48.854;9.302;2022-11-20T09:37:32;5.15;;;1.40;;
2099;SDS011;1055;48.854;9.302;2022-11-20T09:39:57;5.10;;;1.20;;
2099;SDS011;1055;48.854;9.302;2022-11-20T09:55:35;4.75;;;0.85;;
2099;SDS011;1055;48.854;9.302;2022-11-20T09:58:02;4.88;;;1.10;;
2099;SDS011;1055;48.854;9.302;2022-11-20T10:00:32;4.72;;;1.00;;
2099;SDS011;1055;48.854;9.302;2022-11-20T10:03:01;4.72;;;1.30;;
2099;SDS011;1055;48.854;9.302;2022-11-20T10:05:48;4.65;;;1.23;;
2099;SDS011;1055;48.854;9.302;2022-11-20T10:14:14;4.53;;;1.23;;
2099;SDS011;1055;48.854;9.302;2022-11-20T10:16:52;5.18;;;1.38;;
2099;SDS011;1055;48.854;9.302;2022-11-20T10:25:16;5.15;;;1.20;;
2099;SDS011;1055;48.854;9.302;2022-11-20T10:30:41;5.80;;;1.20;;
2099;SDS011;1055;48.854;9.302;2022-11-20T10:33:31;5.07;;;1.38;;
2099;SDS011;1055;48.854;9.302;2022-11-20T10:36:04;5.60;;;1.48;;
2099;SDS011;1055;48.854;9.302;2022-11-20T10:38:39;7.60;;;1.98;;
2099;SDS011;1055;48.854;9.302;2022-11-20T10:41:24;8.75;;;3.30;;
2099;SDS011;1055;48.854;9.302;2022-11-20T10:44:02;5.30;;;1.40;;
2099;SDS011;1055;48.854;9.302;2022-11-20T10:46:38;5.60;;;1.50;;
2099;SDS011;1055;48.854;9.302;2022-11-20T10:49:16;5.35;;;1.30;;
2099;SDS011;1055;48.854;9.302;2022-11-20T10:54:21;5.10;;;1.48;;
2099;SDS011;1055;48.854;9.302;2022-11-20T11:02:31;4.63;;;1.23;;
2099;SDS011;1055;48.854;9.302;2022-11-20T11:07:59;5.05;;;1.70;;
2099;SDS011;1055;48.854;9.302;2022-11-20T11:10:30;5.80;;;1.80;;
2099;SDS011;1055;48.854;9.302;2022-11-20T11:12:57;5.85;;;1.75;;
2099;SDS011;1055;48.854;9.302;2022-11-20T11:17:53;5.18;;;1.65;;
2099;SDS011;1055;48.854;9.302;2022-11-20T11:20:23;7.27;;;2.07;;
2099;SDS011;1055;48.854;9.302;2022-11-20T11:22:51;5.15;;;1.70;;
2099;SDS011;1055;48.854;9.302;2022-11-20T11:25:30;5.85;;;2.22;;
2099;SDS011;1055;48.854;9.302;2022-11-20T11:28:01;6.38;;;2.35;;
2099;SDS011;1055;48.854;9.302;2022-11-20T11:30:44;5.82;;;1.88;;
2099;SDS011;1055;48.854;9.302;2022-11-20T11:33:12;5.80;;;1.75;;
2099;SDS011;1055;48.854;9.302;2022-11-20T11:35:45;5.82;;;2.05;;
2099;SDS011;1055;48.854;9.302;2022-11-20T11:38:14;5.32;;;1.70;;
2099;SDS011;1055;48.854;9.302;2022-11-20T11:40:43;5.72;;;1.77;;
2099;SDS011;1055;48.854;9.302;2022-11-20T11:43:25;7.18;;;3.63;;
2099;SDS011;1055;48.854;9.302;2022-11-20T11:46:31;6.28;;;2.65;;
2099;SDS011;1055;48.854;9.302;2022-11-20T11:51:34;6.10;;;2.10;;
2099;SDS011;1055;48.854;9.302;2022-11-20T11:54:21;5.70;;;2.72;;
2099;SDS011;1055;48.854;9.302;2022-11-20T11:56:51;6.82;;;2.05;;
2099;SDS011;1055;48.854;9.302;2022-11-20T12:02:28;8.02;;;1.92;;
2099;SDS011;1055;48.854;9.302;2022-11-20T12:04:57;11.65;;;2.33;;
2099;SDS011;1055;48.854;9.302;2022-11-20T12:07:41;7.20;;;2.63;;
2099;SDS011;1055;48.854;9.302;2022-11-20T12:12:51;6.80;;;2.47;;
2099;SDS011;1055;48.854;9.302;2022-11-20T12:15:30;5.97;;;2.33;;
2099;SDS011;1055;48.854;9.302;2022-11-20T12:17:58;6.57;;;2.08;;
2099;SDS011;1055;48.854;9.302;2022-11-20T12:20:26;8.10;;;2.13;;
2099;SDS011;1055;48.854;9.302;2022-11-20T12:25:27;5.70;;;2.13;;
2099;SDS011;1055;48.854;9.302;2022-11-20T12:28:09;9.15;;;2.20;;
2099;SDS011;1055;48.854;9.302;2022-11-20T12:50:39;5.03;;;1.33;;
2099;SDS011;1055;48.854;9.302;2022-11-20T12:58:48;4.95;;;1.30;;
2099;SDS011;1055;48.854;9.302;2022-11-20T13:06:58;4.72;;;1.23;;
2099;SDS011;1055;48.854;9.302;2022-11-20T13:09:26;5.85;;;1.60;;
2099;SDS011;1055;48.854;9.302;2022-11-20T13:14:56;5.75;;;1.63;;
2099;SDS011;1055;48.854;9.302;2022-11-20T13:17:38;5.57;;;1.58;;
2099;SDS011;1055;48.854;9.302;2022-11-20T13:20:14;4.63;;;1.30;;
2099;SDS011;1055;48.854;9.302;2022-11-20T13:22:52;6.50;;;1.40;;
2099;SDS011;1055;48.854;9.302;2022-11-20T13:25:32;5.18;;;1.50;;
2099;SDS011;1055;48.854;9.302;2022-11-20T13:28:41;5.70;;;1.33;;
2099;SDS011;1055;48.854;9.302;2022-11-20T13:30:49;7.22;;;1.30;;
2099;SDS011;1055;48.854;9.302;2022-11-20T13:33:23;5.32;;;1.30;;
2099;SDS011;1055;48.854;9.302;2022-11-20T13:36:04;5.35;;;1.45;;
2099;SDS011;1055;48.854;9.302;2022-11-20T13:38:47;4.65;;;1.20;;
2099;SDS011;1055;48.854;9.302;2022-11-20T13:41:33;4.70;;;1.30;;
2099;SDS011;1055;48.854;9.302;2022-11-20T13:46:44;10.52;;;2.00;;
2099;SDS011;1055;48.854;9.302;2022-11-20T13:49:30;5.50;;;1.50;;
2099;SDS011;1055;48.854;9.302;2022-11-20T13:54:41;5.07;;;1.13;;
2099;SDS011;1055;48.854;9.302;2022-11-20T13:57:33;7.22;;;1.90;;
2099;SDS011;1055;48.854;9.302;2022-11-20T14:00:08;5.03;;;1.20;;
2099;SDS011;1055;48.854;9.302;2022-11-20T14:02:39;5.50;;;1.50;;
2099;SDS011;1055;48.854;9.302;2022-11-20T14:05:11;5.10;;;1.30;;
2099;SDS011;1055;48.854;9.302;2022-11-20T14:07:44;4.10;;;0.70;;
2099;SDS011;1055;48.854;9.302;2022-11-20T14:13:15;5.20;;;1.30;;
2099;SDS011;1055;48.854;9.302;2022-11-20T14:15:43;4.40;;;0.70;;
2099;SDS011;1055;48.854;9.302;2022-11-20T14:18:13;4.30;;;0.80;;
2099;SDS011;1055;48.854;9.302;2022-11-20T14:20:44;4.70;;;1.30;;
2099;SDS011;1055;48.854;9.302;2022-11-20T14:23:10;4.20;;;0.80;;
2099;SDS011;1055;48.854;9.302;2022-11-20T14:25:36;4.35;;;0.90;;
2099;SDS011;1055;48.854;9.302;2022-11-20T14:28:10;5.03;;;1.42;;
2099;SDS011;1055;48.854;9.302;2022-11-20T14:30:50;4.20;;;1.00;;
2099;SDS011;1055;48.854;9.302;2022-11-20T14:33:16;4.40;;;0.90;;
2099;SDS011;1055;48.854;9.302;2022-11-20T14:35:46;5.30;;;1.05;;
2099;SDS011;1055;48.854;9.302;2022-11-20T14:38:14;5.30;;;1.30;;
2099;SDS011;1055;48.854;9.302;2022-11-20T14:40:43;5.18;;;1.33;;
2099;SDS011;1055;48.854;9.302;2022-11-20T14:46:02;4.57;;;1.27;;
2099;SDS011;1055;48.854;9.302;2022-11-20T14:48:38;5.78;;;1.40;;
2099;SDS011;1055;48.854;9.302;2022-11-20T14:53:49;6.70;;;1.67;;
2099;SDS011;1055;48.854;9.302;2022-11-20T14:56:20;8.00;;;4.37;;
2099;SDS011;1055;48.854;9.302;2022-11-20T14:58:55;7.57;;;1.55;;
2099;SDS011;1055;48.854;9.302;2022-11-20T15:01:25;6.65;;;1.80;;
2099;SDS011;1055;48.854;9.302;2022-11-20T15:06:34;5.25;;;2.00;;
2099;SDS011;1055;48.854;9.302;2022-11-20T15:09:02;6.07;;;2.75;;
2099;SDS011;1055;48.854;9.302;2022-11-20T15:11:31;6.80;;;2.60;;
2099;SDS011;1055;48.854;9.302;2022-11-20T15:14:00;6.93;;;2.50;;
2099;SDS011;1055;48.854;9.302;2022-11-20T15:16:29;6.43;;;2.30;;
2099;SDS011;1055;48.854;9.302;2022-11-20T15:18:55;8.55;;;2.22;;
2099;SDS011;1055;48.854;9.302;2022-11-20T15:21:21;6.83;;;2.00;;
2099;SDS011;1055;48.854;9.302;2022-11-20T15:23:47;6.33;;;1.77;;
2099;SDS011;1055;48.854;9.302;2022-11-20T15:26:14;5.88;;;1.65;;
2099;SDS011;1055;48.854;9.302;2022-11-20T15:28:46;6.55;;;2.13;;
2099;SDS011;1055;48.854;9.302;2022-11-20T15:31:15;5.95;;;2.00;;
2099;SDS011;1055;48.854;9.302;2022-11-20T15:33:43;5.43;;;1.70;;
2099;SDS011;1055;48.854;9.302;2022-11-20T15:36:09;6.40;;;1.80;;
2099;SDS011;1055;48.854;9.302;2022-11-20T15:38:35;7.28;;;2.00;;
2099;SDS011;1055;48.854;9.302;2022-11-20T15:41:00;6.13;;;2.00;;
2099;SDS011;1055;48.854;9.302;2022-11-20T15:43:26;6.50;;;2.00;;
2099;SDS011;1055;48.854;9.302;2022-11-20T15:46:05;6.60;;;2.27;;
2099;SDS011;1055;48.854;9.302;2022-11-20T15:48:44;5.28;;;1.80;;
2099;SDS011;1055;48.854;9.302;2022-11-20T15:51:23;5.90;;;2.30;;
2099;SDS011;1055;48.854;9.302;2022-11-20T15:53:50;7.78;;;2.20;;
2099;SDS011;1055;48.854;9.302;2022-11-20T15:56:15;6.70;;;2.20;;
2099;SDS011;1055;48.854;9.302;2022-11-20T15:58:41;5.97;;;2.10;;
2099;SDS011;1055;48.854;9.302;2022-11-20T16:01:13;7.63;;;2.70;;
2099;SDS011;1055;48.854;9.302;2022-11-20T16:03:40;6.22;;;2.60;;
2099;SDS011;1055;48.854;9.302;2022-11-20T16:06:06;6.60;;;2.90;;
2099;SDS011;1055;48.854;9.302;2022-11-20T16:08:32;7.03;;;2.50;;
2099;SDS011;1055;48.854;9.302;2022-11-20T16:10:58;6.80;;;2.97;;
2099;SDS011;1055;48.854;9.302;2022-11-20T16:13:24;7.10;;;3.00;;
2099;SDS011;1055;48.854;9.302;2022-11-20T16:16:17;7.90;;;5.18;;
2099;SDS011;1055;48.854;9.302;2022-11-20T16:18:44;7.88;;;3.50;;
2099;SDS011;1055;48.854;9.302;2022-11-20T16:21:10;9.23;;;3.60;;
2099;SDS011;1055;48.854;9.302;2022-11-20T16:23:38;6.55;;;4.05;;
2099;SDS011;1055;48.854;9.302;2022-11-20T16:26:13;6.90;;;4.27;;
2099;SDS011;1055;48.854;9.302;2022-11-20T16:28:41;9.10;;;7.80;;
2099;SDS011;1055;48.854;9.302;2022-11-20T16:31:15;6.10;;;3.30;;
2099;SDS011;1055;48.854;9.302;2022-11-20T16:33:42;8.10;;;3.40;;
2099;SDS011;1055;48.854;9.302;2022-11-20T16:36:11;8.80;;;3.30;;
2099;SDS011;1055;48.854;9.302;2022-11-20T16:38:38;6.22;;;2.60;;
2099;SDS011;1055;48.854;9.302;2022-11-20T16:41:05;8.60;;;2.92;;
2099;SDS011;1055;48.854;9.302;2022-11-20T16:43:31;8.07;;;3.20;;
2099;SDS011;1055;48.854;9.302;2022-11-20T16:45:57;6.10;;;3.03;;
2099;SDS011;1055;48.854;9.302;2022-11-20T16:48:22;7.13;;;3.53;;
2099;SDS011;1055;48.854;9.302;2022-11-20T16:50:49;6.70;;;3.10;;
2099;SDS011;1055;48.854;9.302;2022-11-20T16:53:20;7.45;;;3.35;;
2099;SDS011;1055;48.854;9.302;2022-11-20T16:55:46;7.65;;;2.83;;
2099;SDS011;1055;48.854;9.302;2022-11-20T16:58:12;10.70;;;2.70;;
2099;SDS011;1055;48.854;9.302;2022-11-20T17:00:39;7.68;;;3.30;;
2099;SDS011;1055;48.854;9.302;2022-11-20T17:03:05;6.47;;;2.72;;
2099;SDS011;1055;48.854;9.302;2022-11-20T17:05:32;6.25;;;2.53;;
2099;SDS011;1055;48.854;9.302;2022-11-20T17:07:58;7.18;;;2.92;;